This is the latest recevied weather packets stored in our database for station/object KB2SKP. If no packets are shown the sender has not sent any weather packets the latest 10 day(s).
| Time | Temp. | Humidity | Pressure | Rain* | Wind** | Luminosity | Snow |
|---|---|---|---|---|---|---|---|
| 1777744472 | 13.89° C | 40% | 1009.7 hPa | 0 mm | - | 103 W/m² | - |
| 1777744169 | 13.89° C | 42% | 1009.8 hPa | 0 mm | - | 100 W/m² | - |
| 1777743866 | 13.33° C | 52% | 1009.9 hPa | 0 mm | - | 98 W/m² | - |
| 1777743562 | 13.89° C | 52% | 1009.8 hPa | 0 mm | - | 98 W/m² | - |
| 1777743259 | 12.78° C | 51% | 1009.8 hPa | 0 mm | - | 120 W/m² | - |
| 1777742958 | 12.78° C | 49% | 1009.8 hPa | 0 mm | - | 124 W/m² | - |
| 1777742655 | 12.78° C | 46% | 1009.9 hPa | 0 mm | - | 134 W/m² | - |
| 1777742350 | 12.78° C | 47% | 1009.7 hPa | 0 mm | - | 101 W/m² | - |
| 1777742047 | 12.22° C | 44% | 1010.1 hPa | 0 mm | - | 118 W/m² | - |
| 1777741744 | 12.78° C | 46% | 1010 hPa | 0 mm | - | 81 W/m² | - |
| 1777741441 | 12.78° C | 52% | 1010 hPa | 0 mm | - | 98 W/m² | - |
| 1777741136 | 12.78° C | 56% | 1009.9 hPa | 0 mm | - | 97 W/m² | - |
| 1777740834 | 12.78° C | 57% | 1009.9 hPa | 0 mm | - | 108 W/m² | - |
| 1777740530 | 12.78° C | 56% | 1010 hPa | 0 mm | - | 91 W/m² | - |
| 1777740222 | 12.78° C | 56% | 1010.2 hPa | 0 mm | - | 85 W/m² | - |
| 1777739918 | 12.78° C | 55% | 1010.2 hPa | 0 mm | - | 101 W/m² | - |
| 1777739614 | 13.33° C | 58% | 1010.3 hPa | 0 mm | - | 59 W/m² | - |
| 1777739312 | 12.78° C | 57% | 1010.3 hPa | 0 mm | - | 122 W/m² | - |
| 1777739008 | 12.78° C | 61% | 1009.9 hPa | 0 mm | - | 119 W/m² | - |
| 1777738706 | 12.78° C | 61% | 1010 hPa | 0 mm | - | 119 W/m² | - |
| 1777738402 | 12.78° C | 60% | 1010.2 hPa | 0 mm | - | 129 W/m² | - |
| 1777738100 | 12.78° C | 58% | 1010.4 hPa | 0 mm | - | 141 W/m² | - |
| 1777737798 | 12.78° C | 58% | 1010.4 hPa | 0 mm | - | 129 W/m² | - |
| 1777737497 | 12.22° C | 59% | 1010.3 hPa | 0 mm | - | 124 W/m² | - |
| 1777737194 | 12.22° C | 59% | 1010.3 hPa | 0 mm | - | 110 W/m² | - |
* Rain latest hour (hover to see other rain measurements)
** Current wind speed in m/s (hover to see current wind gust speed)